Kasson, Minnesota
Current Conditions -  °F | °C
As of 2:14 AM on Saturday 25 Oct 2014 (Local Time) from KTOB Reporting Station
Scattered Clouds Scattered Clouds  
Wind Chill: 54°   Ceiling: Unl
Heat Index: 54°   Visibility: 10mi
Dew Point: 45°   Wind: 8mph
Humidity: 72%   Direction: 290°WNW
Pressure: 29.95"   Gusts: NA
Location:  44.03°N, 92.75°W
Report Text: KTOB 250714Z AUTO 29007KT 10SM SCT100 12/07 A2995 RMK AO2
Loading
Personal Weather Stations






























Interactive Weather Map
Tropical Storm Tracking
New forecast layout! Learn more

10-Day Weather Forecast

Advertisements
Track Severe Weather on mobile